Time;durP1;ratioP1;P1;durP2;ratioP2;P2;SDS_P1;SDS_P2;PMS_P1;PMS_P2;Temp;Humidity;BMP_temperature;BMP_pressure;BME280_temperature;BME280_humidity;BME280_pressure;Samples;Min_cycle;Max_cycle;Signal;HPM_P1;HPM_P2
2022/08/30 00:04:07;;;;;;;6.75;1.98;;;;;;;-147.53;100.00;57128.34;10298959;28;20528;-79
2022/08/30 00:09:09;;;;;;;6.05;1.92;;;;;;;-147.53;100.00;57128.34;10307655;28;20545;-79
2022/08/30 00:14:11;;;;;;;4.03;1.95;;;;;;;-147.53;100.00;57128.34;10303372;28;20077;-79
2022/08/30 00:19:12;;;;;;;4.40;1.98;;;;;;;-147.53;100.00;57128.34;10298159;28;20057;-78
2022/08/30 00:24:14;;;;;;;5.22;1.88;;;;;;;-147.53;100.00;57128.34;10302925;28;20141;-78
2022/08/30 00:29:16;;;;;;;7.43;2.30;;;;;;;-147.53;100.00;57128.34;10303310;28;20449;-78
2022/08/30 00:34:17;;;;;;;7.95;1.90;;;;;;;-147.53;100.00;57128.34;10301567;28;20386;-78
2022/08/30 00:39:19;;;;;;;4.47;1.95;;;;;;;-147.53;100.00;57128.34;10303184;28;20449;-78
2022/08/30 00:44:20;;;;;;;5.60;2.30;;;;;;;-147.53;100.00;57128.34;10319818;28;20409;-79
2022/08/30 00:49:27;;;;;;;3.70;2.08;;;;;;;-147.53;100.00;57128.34;10303573;28;20041;-78
2022/08/30 00:54:31;;;;;;;4.63;2.45;;;;;;;-147.53;100.00;57128.34;10294829;28;20074;-78
2022/08/30 00:59:33;;;;;;;5.32;2.10;;;;;;;-147.53;100.00;57128.34;10290567;28;20574;-78
2022/08/30 01:04:37;;;;;;;6.70;2.42;;;;;;;-147.53;100.00;57128.34;10303568;28;20522;-78
2022/08/30 01:09:39;;;;;;;4.53;2.00;;;;;;;-147.53;100.00;57128.34;10299169;28;20043;-78
2022/08/30 01:14:41;;;;;;;4.25;1.90;;;;;;;-147.53;100.00;57128.34;10316851;28;20439;-78
2022/08/30 01:19:49;;;;;;;4.95;2.00;;;;;;;-147.53;100.00;57128.34;10300262;28;20035;-78
2022/08/30 01:24:54;;;;;;;5.15;1.98;;;;;;;-147.53;100.00;57128.34;10285484;28;20038;-78
2022/08/30 01:29:57;;;;;;;4.80;1.90;;;;;;;-147.53;100.00;57128.34;10298320;28;20049;-78
2022/08/30 01:34:59;;;;;;;5.63;1.92;;;;;;;-147.53;100.00;57128.34;10300805;28;20045;-78
2022/08/30 01:40:02;;;;;;;3.30;1.52;;;;;;;-147.53;100.00;57128.34;10301091;28;20036;-78
2022/08/30 01:45:05;;;;;;;4.40;1.70;;;;;;;-147.53;100.00;57128.34;10294877;28;20054;-78
2022/08/30 01:50:09;;;;;;;3.35;1.70;;;;;;;-147.53;100.00;57128.34;10298282;28;20129;-78
2022/08/30 01:55:11;;;;;;;3.85;1.85;;;;;;;-147.53;100.00;57128.34;10296789;28;20050;-78
2022/08/30 02:00:13;;;;;;;3.88;1.90;;;;;;;-147.53;100.00;57128.34;10296139;28;20031;-78
2022/08/30 02:05:15;;;;;;;4.10;1.83;;;;;;;-147.53;100.00;57128.34;10299811;28;20535;-78
2022/08/30 02:10:16;;;;;;;3.28;1.83;;;;;;;-147.53;100.00;57128.34;10313942;28;20043;-78
2022/08/30 02:15:18;;;;;;;5.55;1.80;;;;;;;-147.53;100.00;57128.34;10306821;28;20544;-78
2022/08/30 02:20:20;;;;;;;3.13;1.60;;;;;;;-147.53;100.00;57128.34;10302121;28;20494;-78
2022/08/30 02:25:21;;;;;;;3.35;1.73;;;;;;;-147.53;100.00;57128.34;10306556;28;20047;-78
2022/08/30 02:30:23;;;;;;;4.65;1.92;;;;;;;-147.53;100.00;57128.34;10297659;28;20116;-78
2022/08/30 02:35:26;;;;;;;3.33;1.50;;;;;;;-147.53;100.00;57128.34;10298352;28;20232;-78
2022/08/30 02:40:28;;;;;;;5.70;1.50;;;;;;;-147.53;100.00;57128.34;10301684;28;20058;-78
2022/08/30 02:45:30;;;;;;;5.55;1.85;;;;;;;-147.53;100.00;57128.34;10305057;28;20046;-78
2022/08/30 02:50:32;;;;;;;4.75;1.60;;;;;;;-147.53;100.00;57128.34;10300689;28;20070;-78
2022/08/30 02:55:34;;;;;;;4.25;1.55;;;;;;;-147.53;100.00;57128.34;10292430;28;20088;-78
2022/08/30 03:00:36;;;;;;;3.03;1.77;;;;;;;-147.53;100.00;57128.34;10301811;28;20058;-78
2022/08/30 03:05:38;;;;;;;2.72;1.77;;;;;;;-147.53;100.00;57128.34;10296181;28;20156;-78
2022/08/30 03:10:40;;;;;;;4.68;2.00;;;;;;;-147.53;100.00;57128.34;10315220;28;20046;-77
2022/08/30 03:15:42;;;;;;;5.13;2.10;;;;;;;-147.53;100.00;57128.34;10294966;28;20050;-78
2022/08/30 03:20:43;;;;;;;4.35;1.92;;;;;;;-147.53;100.00;57128.34;10307665;28;20034;-78
2022/08/30 03:25:56;;;;;;;5.50;2.42;;;;;;;-147.53;100.00;57128.34;10297684;28;20594;-78
2022/08/30 03:30:57;;;;;;;3.83;1.90;;;;;;;-147.53;100.00;57128.34;10296703;28;20049;-78
2022/08/30 03:35:59;;;;;;;4.45;2.17;;;;;;;-147.53;100.00;57128.34;10296794;28;20532;-77
2022/08/30 03:41:01;;;;;;;4.47;1.80;;;;;;;-147.53;100.00;57128.34;10317310;28;20106;-78
2022/08/30 03:46:03;;;;;;;4.82;2.35;;;;;;;-147.53;100.00;57128.34;10302437;28;20049;-78
2022/08/30 03:51:05;;;;;;;5.30;2.25;;;;;;;-147.53;100.00;57128.34;10310288;28;20046;-77
2022/08/30 03:56:06;;;;;;;5.43;2.30;;;;;;;-147.53;100.00;57128.34;10308226;28;20138;-78
2022/08/30 04:01:08;;;;;;;6.97;2.60;;;;;;;-147.53;100.00;57128.34;10298383;28;20052;-78
2022/08/30 04:06:10;;;;;;;4.38;2.22;;;;;;;-147.53;100.00;57128.34;10304195;28;20125;-78
2022/08/30 04:11:14;;;;;;;6.70;2.55;;;;;;;-147.53;100.00;57128.34;10326975;28;20045;-78
2022/08/30 04:16:18;;;;;;;7.40;2.95;;;;;;;-147.53;100.00;57128.34;10301137;28;20458;-78
2022/08/30 04:21:19;;;;;;;7.32;2.90;;;;;;;-147.53;100.00;57128.34;10301307;28;20090;-78
2022/08/30 04:26:21;;;;;;;6.55;2.63;;;;;;;-147.53;100.00;57128.34;10303362;28;20085;-78
2022/08/30 04:31:28;;;;;;;5.93;2.72;;;;;;;-147.53;100.00;57128.34;10305002;28;20128;-78
2022/08/30 04:36:29;;;;;;;6.45;2.50;;;;;;;-147.53;100.00;57128.34;10313613;28;20082;-78
2022/08/30 04:41:31;;;;;;;6.15;2.80;;;;;;;-147.53;100.00;57128.34;10314970;28;20034;-78
2022/08/30 04:46:34;;;;;;;5.15;2.60;;;;;;;-147.53;100.00;57128.34;10311002;28;20046;-78
2022/08/30 04:51:45;;;;;;;6.57;2.60;;;;;;;-147.53;100.00;57128.34;10300128;28;20051;-78
2022/08/30 04:56:46;;;;;;;7.32;3.22;;;;;;;-147.53;100.00;57128.34;10292551;28;20055;-78
2022/08/30 05:01:48;;;;;;;8.77;3.30;;;;;;;-147.53;100.00;57128.34;10300755;28;20034;-78
2022/08/30 05:06:51;;;;;;;7.13;3.15;;;;;;;-147.53;100.00;57128.34;10295422;28;20053;-79
2022/08/30 05:11:53;;;;;;;7.70;3.38;;;;;;;-147.53;100.00;57128.34;10304501;28;20042;-79
2022/08/30 05:16:55;;;;;;;7.13;3.20;;;;;;;-147.53;100.00;57128.34;10317003;28;20121;-78
2022/08/30 05:21:56;;;;;;;9.55;3.67;;;;;;;-147.53;100.00;57128.34;10302345;28;20576;-78
2022/08/30 05:26:58;;;;;;;8.95;3.90;;;;;;;-147.53;100.00;57128.34;10296922;28;20494;-79
2022/08/30 05:32:02;;;;;;;7.75;3.70;;;;;;;-147.53;100.00;57128.34;10315346;28;20129;-77
2022/08/30 05:37:04;;;;;;;8.10;3.38;;;;;;;-147.53;100.00;57128.34;10306354;28;20417;-77
2022/08/30 05:42:06;;;;;;;8.73;3.35;;;;;;;-147.53;100.00;57128.34;10312112;28;20053;-77
2022/08/30 05:47:07;;;;;;;6.40;3.17;;;;;;;-147.53;100.00;57128.34;10299652;28;20501;-77
2022/08/30 05:52:09;;;;;;;7.47;3.30;;;;;;;-147.53;100.00;57128.34;10305837;28;20049;-77
2022/08/30 05:57:11;;;;;;;9.10;3.00;;;;;;;-147.53;100.00;57128.34;10300042;28;20047;-77
2022/08/30 06:02:13;;;;;;;8.13;3.35;;;;;;;-147.53;100.00;57128.34;10305292;28;20065;-77
2022/08/30 06:07:14;;;;;;;7.15;3.13;;;;;;;-147.53;100.00;57128.34;10312864;28;20046;-77
2022/08/30 06:12:21;;;;;;;7.28;3.20;;;;;;;-147.53;100.00;57128.34;10304636;28;20085;-77
2022/08/30 06:17:23;;;;;;;9.15;3.10;;;;;;;-147.53;100.00;57128.34;10297459;28;20422;-77
2022/08/30 06:22:24;;;;;;;7.18;3.00;;;;;;;-147.53;100.00;57128.34;10305328;28;20042;-77
2022/08/30 06:27:26;;;;;;;5.65;2.47;;;;;;;-147.53;100.00;57128.34;10313295;28;20055;-77
2022/08/30 06:32:28;;;;;;;11.27;2.60;;;;;;;-147.53;100.00;57128.34;10306716;28;20035;-77
2022/08/30 06:37:31;;;;;;;16.45;3.38;;;;;;;-147.53;100.00;57128.34;10319342;28;20097;-77
2022/08/30 06:42:33;;;;;;;5.90;2.60;;;;;;;-147.53;100.00;57128.34;10300235;28;20046;-77
2022/08/30 06:47:35;;;;;;;21.90;2.92;;;;;;;-147.53;100.00;57128.34;10301784;28;20085;-77
2022/08/30 06:52:37;;;;;;;20.25;3.13;;;;;;;-147.53;100.00;57128.34;10305553;28;20632;-77
2022/08/30 06:57:39;;;;;;;7.72;2.63;;;;;;;-147.53;100.00;57128.34;10312525;28;20137;-77
2022/08/30 07:02:41;;;;;;;10.57;2.20;;;;;;;-147.53;100.00;57128.34;10300852;28;20038;-77
2022/08/30 07:07:43;;;;;;;9.35;2.03;;;;;;;-147.53;100.00;57128.34;10295740;28;20101;-77
2022/08/30 07:12:45;;;;;;;6.32;2.03;;;;;;;-147.53;100.00;57128.34;10304140;28;20042;-77
2022/08/30 07:23:08;;;;;;;5.20;2.08;;;;;;;-147.53;100.00;57128.34;10300682;28;20046;-77
2022/08/30 07:28:10;;;;;;;4.75;1.58;;;;;;;-147.53;100.00;57128.34;10292631;28;20125;-77
2022/08/30 07:33:12;;;;;;;6.40;1.50;;;;;;;-147.53;100.00;57128.34;10294392;28;20042;-78
2022/08/30 07:38:14;;;;;;;4.65;1.73;;;;;;;-147.53;100.00;57128.34;10293391;28;20501;-77
2022/08/30 07:43:16;;;;;;;2.80;1.20;;;;;;;-147.53;100.00;57128.34;10301122;28;20639;-78
2022/08/30 07:48:18;;;;;;;3.00;1.38;;;;;;;-147.53;100.00;57128.34;10282051;28;20050;-76
2022/08/30 07:53:20;;;;;;;4.20;1.02;;;;;;;-147.53;100.00;57128.34;10306145;28;20050;-76
2022/08/30 07:58:22;;;;;;;5.38;1.35;;;;;;;-147.53;100.00;57128.34;10253172;28;20050;-77
2022/08/30 08:03:25;;;;;;;4.82;1.38;;;;;;;-147.53;100.00;57128.34;10286150;28;20062;-76
2022/08/30 08:08:27;;;;;;;5.63;1.40;;;;;;;-147.53;100.00;57128.34;10304800;28;20047;-76
2022/08/30 08:13:29;;;;;;;3.78;1.38;;;;;;;-147.53;100.00;57128.34;10310376;28;20972;-76
2022/08/30 08:18:33;;;;;;;10.65;1.98;;;;;;;-147.53;100.00;57128.34;10275046;28;20050;-80
2022/08/30 08:23:34;;;;;;;6.28;1.58;;;;;;;-147.53;100.00;57128.34;10301787;28;20049;-80
2022/08/30 08:28:36;;;;;;;3.67;1.40;;;;;;;-147.53;100.00;57128.34;10315837;28;20402;-81
2022/08/30 08:33:37;;;;;;;2.42;1.35;;;;;;;-147.53;100.00;57128.34;10301351;28;20046;-80
2022/08/30 08:38:41;;;;;;;2.00;1.02;;;;;;;-147.53;100.00;57128.34;10308601;28;20426;-80
2022/08/30 08:43:42;;;;;;;2.40;1.20;;;;;;;-147.53;100.00;57128.34;10310996;28;20074;-80
2022/08/30 08:48:48;;;;;;;4.03;1.52;;;;;;;-147.53;100.00;57128.34;10313940;28;20038;-81
2022/08/30 08:54:13;;;;;;;3.13;1.27;;;;;;;-147.53;100.00;57128.34;10298912;28;20465;-80
2022/08/30 08:59:15;;;;;;;4.07;1.42;;;;;;;-147.53;100.00;57128.34;10305653;28;20467;-80
2022/08/30 09:04:25;;;;;;;5.88;1.42;;;;;;;-147.53;100.00;57128.34;10315463;28;20101;-80
2022/08/30 09:09:31;;;;;;;3.22;1.30;;;;;;;-147.53;100.00;57128.34;10304940;28;20050;-80
2022/08/30 09:14:39;;;;;;;3.50;1.20;;;;;;;-147.53;100.00;57128.34;10306539;28;20125;-79
2022/08/30 09:19:52;;;;;;;3.33;1.40;;;;;;;-147.53;100.00;57128.34;10312070;28;20038;-80
2022/08/30 09:25:27;;;;;;;3.22;1.38;;;;;;;-147.53;100.00;57128.34;10307701;28;20060;-82
2022/08/30 09:30:31;;;;;;;3.60;1.35;;;;;;;-147.53;100.00;57128.34;10306174;28;20046;-82
2022/08/30 09:35:35;;;;;;;3.70;1.50;;;;;;;-147.53;100.00;57128.34;10310208;28;20077;-81
2022/08/30 09:40:52;;;;;;;3.85;1.38;;;;;;;-147.53;100.00;57128.34;10315644;28;20050;-81
2022/08/30 09:45:57;;;;;;;4.20;1.38;;;;;;;-147.53;100.00;57128.34;10308990;28;20076;-81
2022/08/30 09:51:11;;;;;;;2.60;1.10;;;;;;;-147.53;100.00;57128.34;10311021;28;20045;-81
2022/08/30 09:56:37;;;;;;;2.92;1.20;;;;;;;-147.53;100.00;57128.34;10324492;28;20102;-81
2022/08/30 10:01:45;;;;;;;3.22;1.50;;;;;;;-147.53;100.00;57128.34;10321881;28;20038;-80
2022/08/30 10:07:08;;;;;;;3.33;1.13;;;;;;;-147.53;100.00;57128.34;10298958;28;20077;-81
2022/08/30 10:12:31;;;;;;;5.45;1.20;;;;;;;-147.53;100.00;57128.34;10287330;28;20061;-81
2022/08/30 10:17:50;;;;;;;5.65;1.38;;;;;;;-147.53;100.00;57128.34;10294878;28;20457;-79
2022/08/30 10:23:03;;;;;;;2.78;1.40;;;;;;;-147.53;100.00;57128.34;10283439;28;20046;-79
2022/08/30 10:28:14;;;;;;;3.20;1.23;;;;;;;-147.53;100.00;57128.34;10303256;28;20045;-79
2022/08/30 10:33:27;;;;;;;2.75;1.20;;;;;;;-147.53;100.00;57128.34;10294015;28;20506;-79
2022/08/30 10:38:35;;;;;;;1.25;0.90;;;;;;;-147.53;100.00;57128.34;10284987;28;20391;-79
2022/08/30 10:44:14;;;;;;;2.78;1.10;;;;;;;-147.53;100.00;57128.34;10273281;28;20334;-81
2022/08/30 10:49:20;;;;;;;5.20;1.40;;;;;;;-147.53;100.00;57128.34;10293533;28;20072;-81
2022/08/30 10:54:37;;;;;;;3.42;1.40;;;;;;;-147.53;100.00;57128.34;10277836;28;20045;-81
2022/08/30 10:59:47;;;;;;;3.75;1.13;;;;;;;-147.53;100.00;57128.34;10320924;28;20097;-81
2022/08/30 11:05:15;;;;;;;2.88;1.05;;;;;;;-147.53;100.00;57128.34;10305485;28;20046;-79
2022/08/30 11:10:24;;;;;;;2.42;0.95;;;;;;;-147.53;100.00;57128.34;10302042;28;20041;-79
2022/08/30 11:15:30;;;;;;;3.57;1.17;;;;;;;-147.53;100.00;57128.34;10303862;28;20038;-79
2022/08/30 11:20:45;;;;;;;1.70;1.23;;;;;;;-147.53;100.00;57128.34;10299946;28;20038;-80
2022/08/30 11:25:52;;;;;;;1.92;0.90;;;;;;;-147.53;100.00;57128.34;10299320;28;20450;-79
2022/08/30 11:31:07;;;;;;;3.90;1.10;;;;;;;-147.53;100.00;57128.34;10277703;28;20038;-76
2022/08/30 11:36:31;;;;;;;4.20;1.10;;;;;;;-147.53;100.00;57128.34;10296238;28;20458;-76
2022/08/30 11:42:28;;;;;;;2.85;0.82;;;;;;;-147.53;100.00;57128.34;10287751;28;20518;-76
2022/08/30 11:47:47;;;;;;;1.35;0.80;;;;;;;-147.53;100.00;57128.34;10295861;28;20558;-75
2022/08/30 11:53:19;;;;;;;2.40;0.98;;;;;;;-147.53;100.00;57128.34;10309713;28;20039;-76
2022/08/30 11:58:58;;;;;;;7.15;1.52;;;;;;;-147.53;100.00;57128.34;10299899;28;20456;-77
2022/08/30 12:04:00;;;;;;;;;;;;;;;-147.53;100.00;57128.34;10257566;28;20412;-76
2022/08/30 12:09:03;;;;;;;3.97;1.20;;;;;;;-147.53;100.00;57128.34;10319445;28;19945;-76
2022/08/30 12:14:31;;;;;;;1.70;0.95;;;;;;;-147.53;100.00;57128.34;10310190;28;20552;-76
2022/08/30 12:19:33;;;;;;;3.83;1.10;;;;;;;-147.53;100.00;57128.34;10300867;28;20030;-79
2022/08/30 12:24:39;;;;;;;1.95;1.00;;;;;;;-147.53;100.00;57128.34;10300157;28;20049;-79
2022/08/30 12:29:50;;;;;;;2.05;0.90;;;;;;;-147.53;100.00;57128.34;10284598;28;20042;-78
2022/08/30 12:34:56;;;;;;;4.40;0.93;;;;;;;-147.53;100.00;57128.34;10295280;28;20104;-79
2022/08/30 12:40:04;;;;;;;2.22;0.90;;;;;;;-147.53;100.00;57128.34;10298810;28;20042;-79
2022/08/30 12:45:14;;;;;;;1.58;0.90;;;;;;;-147.53;100.00;57128.34;10296902;28;20446;-79
2022/08/30 12:50:20;;;;;;;2.30;1.00;;;;;;;-147.53;100.00;57128.34;10315680;28;20046;-79
2022/08/30 12:55:29;;;;;;;1.20;0.80;;;;;;;-147.53;100.00;57128.34;10313472;28;20121;-80
2022/08/30 13:00:48;;;;;;;2.97;0.80;;;;;;;-147.53;100.00;57128.34;10311697;28;20121;-79
2022/08/30 13:05:51;;;;;;;1.85;0.70;;;;;;;-147.53;100.00;57128.34;10320496;28;20062;-79
2022/08/30 13:10:58;;;;;;;3.85;0.80;;;;;;;-147.53;100.00;57128.34;10304112;28;20050;-79
2022/08/30 13:16:19;;;;;;;4.85;0.95;;;;;;;-147.53;100.00;57128.34;10320660;28;20049;-79
2022/08/30 13:21:31;;;;;;;2.28;0.80;;;;;;;-147.53;100.00;57128.34;10302342;28;20509;-79
2022/08/30 13:26:36;;;;;;;2.15;0.80;;;;;;;-147.53;100.00;57128.34;10320925;28;20528;-79
2022/08/30 13:31:37;;;;;;;3.17;0.70;;;;;;;-147.53;100.00;57128.34;10300463;28;20517;-79
2022/08/30 13:36:47;;;;;;;1.50;0.60;;;;;;;-147.53;100.00;57128.34;10301326;28;20042;-76
2022/08/30 13:41:49;;;;;;;2.40;0.82;;;;;;;-147.53;100.00;57128.34;10316416;28;20042;-76
2022/08/30 13:46:55;;;;;;;4.15;1.15;;;;;;;-147.53;100.00;57128.34;10308691;28;20092;-76
2022/08/30 13:52:24;;;;;;;2.22;0.90;;;;;;;-147.53;100.00;57128.34;10299068;28;20038;-76
2022/08/30 13:57:29;;;;;;;1.40;0.70;;;;;;;-147.53;100.00;57128.34;10306025;28;20681;-78
2022/08/30 14:02:54;;;;;;;1.02;0.70;;;;;;;-147.53;100.00;57128.34;10296324;28;20046;-80
2022/08/30 14:07:56;;;;;;;1.00;0.70;;;;;;;-147.53;100.00;57128.34;10301209;28;20565;-79
2022/08/30 14:12:59;;;;;;;1.35;0.60;;;;;;;-147.53;100.00;57128.34;10289486;28;20430;-79
2022/08/30 14:18:09;;;;;;;2.90;0.70;;;;;;;-147.53;100.00;57128.34;10302198;28;20510;-80
2022/08/30 14:23:16;;;;;;;8.52;0.90;;;;;;;-147.53;100.00;57128.34;10303256;28;20043;-79
2022/08/30 14:28:18;;;;;;;5.85;1.80;;;;;;;-147.53;100.00;57128.34;10295475;28;20588;-79
2022/08/30 14:33:21;;;;;;;2.72;0.68;;;;;;;-147.53;100.00;57128.34;10300951;28;20053;-76
2022/08/30 14:38:22;;;;;;;1.65;0.70;;;;;;;-147.53;100.00;57128.34;10295751;28;20038;-78
2022/08/30 14:43:24;;;;;;;3.13;0.80;;;;;;;-147.53;100.00;57128.34;10304395;28;20501;-77
2022/08/30 14:48:26;;;;;;;4.70;0.82;;;;;;;-147.53;100.00;57128.34;10291486;28;20046;-77
2022/08/30 14:53:30;;;;;;;4.45;0.70;;;;;;;-147.53;100.00;57128.34;10300617;28;20060;-79
2022/08/30 14:58:32;;;;;;;5.88;1.20;;;;;;;-147.53;100.00;57128.34;10291587;28;20049;-78
2022/08/30 15:03:34;;;;;;;2.67;1.10;;;;;;;-147.53;100.00;57128.34;10302950;28;20052;-80
2022/08/30 15:08:37;;;;;;;1.98;0.73;;;;;;;-147.53;100.00;57128.34;10308671;28;20121;-79
2022/08/30 15:13:40;;;;;;;5.32;0.80;;;;;;;-147.53;100.00;57128.34;10306917;28;20050;-79
2022/08/30 15:18:43;;;;;;;3.90;0.75;;;;;;;-147.53;100.00;57128.34;10293895;28;20133;-80
2022/08/30 15:23:46;;;;;;;3.20;0.95;;;;;;;-147.53;100.00;57128.34;10300851;28;20699;-78
2022/08/30 15:28:48;;;;;;;1.58;0.73;;;;;;;-147.53;100.00;57128.34;10303191;28;20035;-77
2022/08/30 15:33:50;;;;;;;2.92;0.88;;;;;;;-147.53;100.00;57128.34;10290055;28;20508;-77
2022/08/30 15:38:54;;;;;;;11.60;1.27;;;;;;;-147.53;100.00;57128.34;10301686;28;20050;-78
2022/08/30 15:43:57;;;;;;;1.45;0.80;;;;;;;-147.53;100.00;57128.34;10298196;28;20054;-77
2022/08/30 15:49:13;;;;;;;2.30;1.00;;;;;;;-147.53;100.00;57128.34;10301388;28;20046;-77
2022/08/30 15:54:17;;;;;;;3.72;0.70;;;;;;;-147.53;100.00;57128.34;10301444;28;20105;-77
2022/08/30 15:59:22;;;;;;;3.65;0.75;;;;;;;-147.53;100.00;57128.34;10300388;28;20049;-76
2022/08/30 16:04:25;;;;;;;3.22;0.95;;;;;;;-147.53;100.00;57128.34;10304633;28;20135;-76
2022/08/30 16:09:27;;;;;;;1.48;1.00;;;;;;;-147.53;100.00;57128.34;10303951;28;20391;-76
2022/08/30 16:14:33;;;;;;;3.63;1.10;;;;;;;-147.53;100.00;57128.34;10318901;28;20078;-77
2022/08/30 16:19:36;;;;;;;2.20;1.00;;;;;;;-147.53;100.00;57128.34;10302067;28;20035;-77
2022/08/30 16:24:37;;;;;;;4.80;1.00;;;;;;;-147.53;100.00;57128.34;10300204;28;20097;-77
2022/08/30 16:29:39;;;;;;;2.83;0.95;;;;;;;-147.53;100.00;57128.34;10303086;28;20141;-77
2022/08/30 16:34:41;;;;;;;2.53;1.08;;;;;;;-147.53;100.00;57128.34;10308164;28;20053;-77
2022/08/30 16:39:43;;;;;;;2.20;0.95;;;;;;;-147.53;100.00;57128.34;10321344;28;20046;-77
2022/08/30 16:44:48;;;;;;;2.72;0.98;;;;;;;-147.53;100.00;57128.34;10305436;28;20129;-76
2022/08/30 16:49:50;;;;;;;5.55;1.20;;;;;;;-147.53;100.00;57128.34;10298869;28;20528;-77
2022/08/30 16:54:52;;;;;;;3.53;1.00;;;;;;;-147.53;100.00;57128.34;10294780;28;20058;-78
2022/08/30 16:59:53;;;;;;;4.40;1.27;;;;;;;-147.53;100.00;57128.34;10326287;28;20439;-78
2022/08/30 17:04:56;;;;;;;2.58;1.00;;;;;;;-147.53;100.00;57128.34;10295124;28;20698;-78
2022/08/30 17:09:59;;;;;;;7.20;0.90;;;;;;;-147.53;100.00;57128.34;10318388;28;20046;-78
2022/08/30 17:15:00;;;;;;;5.80;1.30;;;;;;;-147.53;100.00;57128.34;10308138;28;20188;-77
2022/08/30 17:20:08;;;;;;;6.03;1.25;;;;;;;-147.53;100.00;57128.34;10302570;28;20042;-77
2022/08/30 17:25:10;;;;;;;3.50;1.20;;;;;;;-147.53;100.00;57128.34;10299654;28;20473;-77
2022/08/30 17:30:12;;;;;;;3.13;1.00;;;;;;;-147.53;100.00;57128.34;10299575;28;20042;-78
2022/08/30 17:35:14;;;;;;;4.88;1.23;;;;;;;-147.53;100.00;57128.34;10297687;28;20174;-78
2022/08/30 17:40:17;;;;;;;7.05;1.40;;;;;;;-147.53;100.00;57128.34;10315651;28;20137;-77
2022/08/30 17:45:19;;;;;;;6.07;1.20;;;;;;;-147.53;100.00;57128.34;10293073;28;20050;-77
2022/08/30 17:50:21;;;;;;;3.10;1.20;;;;;;;-147.53;100.00;57128.34;10303018;28;20046;-77
2022/08/30 17:55:23;;;;;;;7.45;1.00;;;;;;;-147.53;100.00;57128.34;10311735;28;20050;-78
2022/08/30 18:00:24;;;;;;;5.00;1.40;;;;;;;-147.53;100.00;57128.34;10300828;28;20541;-77
2022/08/30 18:05:26;;;;;;;1.95;1.00;;;;;;;-147.53;100.00;57128.34;10299877;28;20472;-78
2022/08/30 18:10:28;;;;;;;3.00;1.13;;;;;;;-147.53;100.00;57128.34;10302345;28;20425;-77
2022/08/30 18:15:35;;;;;;;5.50;1.20;;;;;;;-147.53;100.00;57128.34;10301156;28;20054;-76
2022/08/30 18:20:38;;;;;;;4.38;0.93;;;;;;;-147.53;100.00;57128.34;10316752;28;20129;-78
2022/08/30 18:25:40;;;;;;;3.13;1.23;;;;;;;-147.53;100.00;57128.34;10296241;28;20048;-78
2022/08/30 18:30:43;;;;;;;3.80;1.30;;;;;;;-147.53;100.00;57128.34;10299088;28;20509;-78
2022/08/30 18:35:47;;;;;;;2.63;1.10;;;;;;;-147.53;100.00;57128.34;10292799;28;20055;-78
2022/08/30 18:40:50;;;;;;;3.75;1.08;;;;;;;-147.53;100.00;57128.34;10274356;28;20035;-77
2022/08/30 18:45:52;;;;;;;1.33;0.95;;;;;;;-147.53;100.00;57128.34;10318674;28;20050;-78
2022/08/30 18:50:53;;;;;;;5.47;1.05;;;;;;;-147.53;100.00;57128.34;10315098;28;20039;-78
2022/08/30 18:55:55;;;;;;;2.90;1.10;;;;;;;-147.53;100.00;57128.34;10296707;28;20108;-78
2022/08/30 19:00:57;;;;;;;1.45;0.95;;;;;;;-147.53;100.00;57128.34;10287808;28;20049;-78
2022/08/30 19:06:03;;;;;;;5.43;1.27;;;;;;;-147.53;100.00;57128.34;10301750;28;20064;-78
2022/08/30 19:11:05;;;;;;;5.38;0.90;;;;;;;-147.53;100.00;57128.34;10297989;28;20494;-79
2022/08/30 19:16:08;;;;;;;5.65;1.40;;;;;;;-147.53;100.00;57128.34;10300598;28;20049;-78
2022/08/30 19:21:13;;;;;;;7.72;1.27;;;;;;;-147.53;100.00;57128.34;10293657;28;20046;-78
2022/08/30 19:26:18;;;;;;;3.20;1.20;;;;;;;-147.53;100.00;57128.34;10292127;28;20055;-78
2022/08/30 19:31:19;;;;;;;3.35;1.33;;;;;;;-147.53;100.00;57128.34;10298383;28;20101;-78
2022/08/30 19:36:21;;;;;;;2.65;1.05;;;;;;;-147.53;100.00;57128.34;10287825;28;20043;-78
2022/08/30 19:41:23;;;;;;;2.35;1.10;;;;;;;-147.53;100.00;57128.34;10299438;28;20343;-78
2022/08/30 19:46:24;;;;;;;3.05;1.08;;;;;;;-147.53;100.00;57128.34;10298312;28;20056;-78
2022/08/30 19:51:27;;;;;;;2.38;1.20;;;;;;;-147.53;100.00;57128.34;10292075;28;20048;-77
2022/08/30 19:56:29;;;;;;;1.90;0.88;;;;;;;-147.53;100.00;57128.34;10310531;28;20205;-77
2022/08/30 20:01:30;;;;;;;1.38;0.98;;;;;;;-147.53;100.00;57128.34;10302712;28;20654;-78
2022/08/30 20:06:34;;;;;;;5.03;1.10;;;;;;;-147.53;100.00;57128.34;10295106;28;20151;-77
2022/08/30 20:11:37;;;;;;;2.90;1.05;;;;;;;-147.53;100.00;57128.34;10295328;28;20062;-78
2022/08/30 20:16:42;;;;;;;5.05;0.98;;;;;;;-147.53;100.00;57128.34;10314743;28;20397;-78
2022/08/30 20:21:46;;;;;;;6.25;1.00;;;;;;;-147.53;100.00;57128.34;10302815;28;20066;-77
2022/08/30 20:26:50;;;;;;;1.80;0.95;;;;;;;-147.53;100.00;57128.34;10289379;28;20514;-78
2022/08/30 20:31:52;;;;;;;1.50;0.77;;;;;;;-147.53;100.00;57128.34;10323686;28;20049;-78
2022/08/30 20:36:55;;;;;;;1.80;0.80;;;;;;;-147.53;100.00;57128.34;10317073;28;20057;-77
2022/08/30 20:41:57;;;;;;;1.77;0.65;;;;;;;-147.53;100.00;57128.34;10310978;28;20050;-78
2022/08/30 20:46:58;;;;;;;1.63;0.70;;;;;;;-147.53;100.00;57128.34;10289217;28;20046;-78
2022/08/30 20:52:00;;;;;;;2.50;0.80;;;;;;;-147.53;100.00;57128.34;10306243;28;20035;-78
2022/08/30 20:57:07;;;;;;;0.95;0.70;;;;;;;-147.53;100.00;57128.34;10299052;28;20133;-77
2022/08/30 21:02:08;;;;;;;1.55;0.73;;;;;;;-147.53;100.00;57128.34;10297669;28;20042;-78
2022/08/30 21:07:11;;;;;;;1.98;0.70;;;;;;;-147.53;100.00;57128.34;10298676;28;21137;-78
2022/08/30 21:12:13;;;;;;;2.15;0.80;;;;;;;-147.53;100.00;57128.34;10293469;28;20486;-78
2022/08/30 21:17:14;;;;;;;1.77;0.70;;;;;;;-147.53;100.00;57128.34;10305257;28;20528;-78
2022/08/30 21:22:16;;;;;;;3.42;0.80;;;;;;;-147.53;100.00;57128.34;10285628;28;20038;-78
2022/08/30 21:27:20;;;;;;;1.13;0.65;;;;;;;-147.53;100.00;57128.34;10309181;28;20054;-78
2022/08/30 21:32:22;;;;;;;1.13;0.70;;;;;;;-147.53;100.00;57128.34;10305611;28;20417;-79
2022/08/30 21:37:25;;;;;;;1.75;0.57;;;;;;;-147.53;100.00;57128.34;10301029;28;20066;-79
2022/08/30 21:42:27;;;;;;;2.03;0.80;;;;;;;-147.53;100.00;57128.34;10309230;28;20520;-79
2022/08/30 21:47:36;;;;;;;5.20;0.77;;;;;;;-147.53;100.00;57128.34;10308959;28;20050;-79
2022/08/30 21:52:37;;;;;;;4.53;0.57;;;;;;;-147.53;100.00;57128.34;10302069;28;20557;-78
2022/08/30 21:57:39;;;;;;;0.90;0.30;;;;;;;-147.53;100.00;57128.34;10308154;28;20048;-78
2022/08/30 22:02:40;;;;;;;0.47;0.40;;;;;;;-147.53;100.00;57128.34;10297405;28;20042;-79
2022/08/30 22:07:42;;;;;;;4.03;0.50;;;;;;;-147.53;100.00;57128.34;10295941;28;20042;-79
2022/08/30 22:12:44;;;;;;;1.35;0.47;;;;;;;-147.53;100.00;57128.34;10302647;28;20507;-79
2022/08/30 22:17:45;;;;;;;1.25;0.50;;;;;;;-147.53;100.00;57128.34;10309189;28;20072;-78
2022/08/30 22:22:47;;;;;;;1.13;0.40;;;;;;;-147.53;100.00;57128.34;10307412;28;20045;-79
2022/08/30 22:27:49;;;;;;;1.38;0.32;;;;;;;-147.53;100.00;57128.34;10304630;28;20165;-79
2022/08/30 22:32:51;;;;;;;0.63;0.45;;;;;;;-147.53;100.00;57128.34;10304471;28;20815;-78
2022/08/30 22:37:54;;;;;;;0.55;0.40;;;;;;;-147.53;100.00;57128.34;10311826;28;20077;-79
2022/08/30 22:42:58;;;;;;;0.65;0.40;;;;;;;-147.53;100.00;57128.34;10319998;28;20118;-79
2022/08/30 22:48:00;;;;;;;0.85;0.50;;;;;;;-147.53;100.00;57128.34;10305588;28;20046;-79
2022/08/30 22:53:04;;;;;;;0.80;0.50;;;;;;;-147.53;100.00;57128.34;10316375;28;20053;-79
2022/08/30 22:58:06;;;;;;;0.93;0.60;;;;;;;-147.53;100.00;57128.34;10310763;28;20425;-79